Hlavní strana
METAR-TAF:

METAR-TAF

Letiště :

Kastamonu, Turecko

zeměpisná šířka: 41-19-01N, zeměpisná délka: 33-47-46E, výška: 1073 m

Aktuální stav počasí

Zpráva byla vytvořena před 13 hodinami a 50 minutami, v 10:50 UTC
vítr z různých směrů 11 kt
Teplota 8°C
Vlhkost vzduchu 46%
Tlak 1012 hPa
Viditelnost 10 km a více
Polojasno ve výšce 4000 ft

METAR: LTAL 221050Z VRB11KT 9999 SCT040 08/M03 Q1012

Čas: 03:40 (00:40 UTC)

Předpověď počasí

Zpráva byla vytvořena před 11 hodinami a 0 minutami, v 13:40 UTC
Předpověď platná od 22 v 15 UTC do 22 v 24 UTC
Jihozápadní vítr 8 kt
Viditelnost: 4000 m
Polojasno ve výšce 3500 ft
kouřmo

TAF: LTAL 221340Z 2215/2224 22008KT 4000 BR SCT035

Stav a předpovědi počasí z více než 4 000 letišť (zprávy METAR a TAF).

Červené a žluté tečky na mapě představují dostupné meteorologické stanice.

Když kurzor umístíte na tečku, zobrazí se název stanice.

Pak kliknutím zobrazíte stav a předpověď počasí.

Chcete-li změnit mapu, kliknutím na zelené tlačítko se znaménkem +mapu přiblížíte, kliknutím na zelené tlačítko se znaménkem – mapu oddálíte a kliknutím na zelené šipky přejdete na sousední mapy.


METAR-TAF: